createdAt,value
2018-08-25T00:01:15.482Z,21.42
2018-08-25T00:03:44.509Z,21.19
2018-08-25T00:06:13.632Z,20.91
2018-08-25T00:08:42.606Z,20.75
2018-08-25T00:11:11.886Z,21.20
2018-08-25T00:13:40.880Z,21.39
2018-08-25T00:16:09.877Z,21.52
2018-08-25T00:18:38.815Z,21.58
2018-08-25T00:21:07.825Z,21.43
2018-08-25T00:23:36.746Z,21.31
2018-08-25T00:26:05.756Z,21.23
2018-08-25T00:28:34.806Z,21.31
2018-08-25T00:31:08.944Z,21.22
2018-08-25T00:33:37.959Z,21.47
2018-08-25T00:36:06.928Z,21.63
2018-08-25T00:38:35.923Z,21.88
2018-08-25T00:41:05.021Z,21.81
2018-08-25T00:43:34.013Z,21.47
2018-08-25T00:46:03.036Z,21.29
2018-08-25T00:48:32.114Z,21.48
2018-08-25T00:51:01.386Z,21.40
2018-08-25T00:53:30.431Z,21.08
2018-08-25T00:55:59.876Z,20.86
2018-08-25T00:58:28.865Z,20.69
2018-08-25T01:00:57.856Z,20.56
2018-08-25T01:03:27.021Z,20.49
2018-08-25T01:05:56.091Z,20.46
2018-08-25T01:08:25.270Z,20.46
2018-08-25T01:10:54.371Z,20.43
2018-08-25T01:13:23.432Z,20.39
2018-08-25T01:15:52.409Z,20.64
2018-08-25T01:18:21.438Z,20.59
2018-08-25T01:20:50.951Z,20.65
2018-08-25T01:23:19.996Z,20.72
2018-08-25T01:25:49.019Z,20.89
2018-08-25T01:28:18.169Z,21.18
2018-08-25T01:30:47.159Z,21.48
2018-08-25T01:33:16.244Z,21.74
2018-08-25T01:35:45.275Z,21.75
2018-08-25T01:38:14.356Z,21.68
2018-08-25T01:40:43.377Z,21.68
2018-08-25T01:43:12.855Z,21.67
2018-08-25T01:45:41.866Z,21.65
2018-08-25T01:48:10.894Z,21.62
2018-08-25T01:50:40.012Z,21.63
2018-08-25T01:53:09.109Z,21.51
2018-08-25T01:55:38.668Z,21.45
2018-08-25T01:58:08.541Z,21.43
2018-08-25T02:00:37.512Z,21.33
2018-08-25T02:03:06.675Z,21.22
2018-08-25T02:05:35.646Z,21.17
2018-08-25T02:08:05.999Z,21.13
2018-08-25T02:10:35.300Z,21.21
2018-08-25T02:13:04.429Z,21.20
2018-08-25T02:15:33.476Z,21.17
2018-08-25T02:18:02.835Z,21.12
2018-08-25T02:20:31.922Z,21.16
2018-08-25T02:23:01.370Z,21.10
2018-08-25T02:25:30.424Z,21.07
2018-08-25T02:28:00.036Z,21.11
2018-08-25T02:30:29.076Z,21.13
2018-08-25T02:33:04.867Z,21.10
2018-08-25T02:35:33.899Z,21.02
2018-08-25T02:38:02.858Z,20.85
2018-08-25T02:40:31.988Z,20.63
2018-08-25T02:43:02.068Z,20.17
2018-08-25T02:45:31.047Z,20.03
2018-08-25T02:48:00.396Z,20.06
2018-08-25T02:50:29.392Z,20.49
2018-08-25T02:52:58.353Z,20.55
2018-08-25T02:55:27.411Z,20.90
2018-08-25T02:57:56.452Z,21.21
2018-08-25T03:00:26.967Z,21.36
2018-08-25T03:02:56.421Z,21.33
2018-08-25T03:05:25.664Z,21.25
2018-08-25T03:07:54.759Z,21.26
2018-08-25T03:10:23.888Z,21.27
2018-08-25T03:12:53.035Z,21.15
2018-08-25T03:15:22.389Z,21.07
2018-08-25T03:17:51.387Z,20.91
2018-08-25T03:20:23.355Z,20.77
2018-08-25T03:22:52.459Z,20.63
2018-08-25T03:25:22.208Z,20.50
2018-08-25T03:27:51.284Z,20.44
2018-08-25T03:30:23.804Z,20.40
2018-08-25T03:32:52.860Z,20.34
2018-08-25T03:35:22.663Z,20.29
2018-08-25T03:37:51.720Z,20.33
2018-08-25T03:40:23.635Z,20.34
2018-08-25T03:42:52.683Z,20.58
2018-08-25T03:45:21.714Z,20.90
2018-08-25T03:47:50.700Z,20.94
2018-08-25T03:50:19.770Z,20.91
2018-08-25T03:52:48.754Z,20.84
2018-08-25T03:55:21.323Z,20.83
2018-08-25T03:57:50.379Z,20.81
2018-08-25T04:00:19.366Z,20.83
2018-08-25T04:02:48.427Z,20.85
2018-08-25T04:05:19.722Z,20.87
2018-08-25T04:07:48.757Z,20.89
2018-08-25T04:10:19.432Z,20.88
2018-08-25T04:12:48.466Z,20.93
2018-08-25T04:15:18.891Z,20.92
2018-08-25T04:17:47.853Z,20.92
2018-08-25T04:20:18.657Z,20.84
2018-08-25T04:22:47.611Z,20.81
2018-08-25T04:25:18.149Z,20.87
2018-08-25T04:27:47.157Z,20.97
2018-08-25T04:30:18.039Z,20.98
2018-08-25T04:32:47.104Z,21.00
2018-08-25T04:35:17.863Z,21.08
2018-08-25T04:37:47.113Z,21.07
2018-08-25T04:40:16.137Z,21.06
2018-08-25T04:42:45.127Z,21.03
2018-08-25T04:45:16.309Z,20.93
2018-08-25T04:47:45.331Z,21.02
2018-08-25T04:50:14.443Z,21.12
2018-08-25T04:52:43.435Z,21.21
2018-08-25T04:55:14.251Z,21.27
2018-08-25T04:57:43.335Z,21.25
2018-08-25T05:00:12.609Z,21.25
2018-08-25T05:02:41.631Z,21.22
2018-08-25T05:05:11.101Z,21.21
2018-08-25T05:07:40.144Z,21.20
2018-08-25T05:10:09.183Z,21.12
2018-08-25T05:12:38.260Z,21.07
2018-08-25T05:15:07.970Z,21.08
2018-08-25T05:17:37.467Z,21.10
2018-08-25T05:20:07.950Z,21.13
2018-08-25T05:22:37.722Z,21.17
2018-08-25T05:25:08.328Z,21.05
2018-08-25T05:27:38.419Z,20.93
2018-08-25T05:30:08.177Z,20.98
2018-08-25T05:32:38.307Z,20.91
2018-08-25T05:35:07.736Z,20.84
2018-08-25T05:37:36.799Z,20.85
2018-08-25T05:40:05.862Z,20.84
2018-08-25T05:42:34.939Z,20.87
2018-08-25T05:45:03.959Z,20.93
2018-08-25T05:47:33.731Z,20.94
2018-08-25T05:50:03.544Z,21.02
2018-08-25T05:52:33.220Z,21.09
2018-08-25T05:55:02.658Z,21.17
2018-08-25T05:57:31.963Z,21.23
2018-08-25T06:00:01.921Z,21.26
2018-08-25T06:02:33.087Z,21.28
2018-08-25T06:05:02.502Z,21.17
2018-08-25T06:07:31.524Z,21.07
2018-08-25T06:10:02.644Z,21.07
2018-08-25T06:12:31.663Z,21.04
2018-08-25T06:15:02.296Z,20.97
2018-08-25T06:17:31.876Z,21.09
2018-08-25T06:20:01.448Z,21.04
2018-08-25T06:22:31.972Z,20.94
2018-08-25T06:25:01.963Z,20.80
2018-08-25T06:27:31.510Z,20.78
2018-08-25T06:30:02.025Z,20.84
2018-08-25T06:32:31.715Z,20.82
2018-08-25T06:35:00.950Z,20.70
2018-08-25T06:37:29.899Z,20.69
2018-08-25T06:39:59.982Z,20.74
2018-08-25T06:42:28.944Z,20.77
2018-08-25T06:45:00.545Z,20.83
2018-08-25T06:47:31.297Z,20.90
2018-08-25T06:50:00.960Z,21.06
2018-08-25T06:52:29.977Z,21.14
2018-08-25T06:54:59.173Z,21.16
2018-08-25T06:57:28.201Z,21.46
2018-08-25T06:59:57.173Z,21.45
2018-08-25T07:02:26.181Z,21.27
2018-08-25T07:04:55.432Z,21.20
2018-08-25T07:07:24.441Z,21.11
2018-08-25T07:09:54.205Z,21.20
2018-08-25T07:12:23.306Z,21.40
2018-08-25T07:14:52.390Z,21.66
2018-08-25T07:17:21.951Z,22.05
2018-08-25T07:19:51.260Z,22.19
2018-08-25T07:22:20.375Z,22.42
2018-08-25T07:24:49.390Z,22.30
2018-08-25T07:27:18.422Z,22.46
2018-08-25T07:29:50.414Z,22.73
2018-08-25T07:32:19.439Z,22.82
2018-08-25T07:34:48.453Z,23.39
2018-08-25T07:37:18.042Z,23.50
2018-08-25T07:39:47.152Z,24.12
2018-08-25T07:42:16.285Z,24.18
2018-08-25T07:44:45.287Z,23.89
2018-08-25T07:47:14.673Z,23.81
2018-08-25T07:49:43.800Z,23.59
2018-08-25T07:52:12.859Z,24.16
2018-08-25T07:54:41.928Z,23.61
2018-08-25T07:57:11.432Z,23.60
2018-08-25T07:59:40.564Z,23.25
2018-08-25T08:02:09.684Z,23.34
2018-08-25T08:04:38.735Z,23.64
2018-08-25T08:07:07.872Z,23.51
2018-08-25T08:09:36.903Z,23.57
2018-08-25T08:12:05.965Z,23.97
2018-08-25T08:14:35.122Z,24.41
2018-08-25T08:17:04.287Z,24.02
2018-08-25T08:19:33.292Z,24.70
2018-08-25T08:22:02.856Z,24.41
2018-08-25T08:24:31.911Z,24.59
2018-08-25T08:27:01.416Z,24.58
2018-08-25T08:29:30.396Z,25.31
2018-08-25T08:31:59.812Z,25.99
2018-08-25T08:34:30.831Z,26.11
2018-08-25T08:37:00.327Z,25.77
2018-08-25T08:39:29.319Z,24.83
2018-08-25T08:41:58.347Z,24.51
2018-08-25T08:44:27.472Z,24.38
2018-08-25T08:46:56.424Z,24.97
2018-08-25T08:49:25.498Z,25.47
2018-08-25T08:51:54.529Z,25.75
2018-08-25T08:54:23.531Z,25.88
2018-08-25T08:56:52.572Z,26.92
2018-08-25T08:59:21.636Z,28.06
2018-08-25T09:01:50.681Z,27.81
2018-08-25T09:04:19.751Z,27.83
2018-08-25T09:06:53.660Z,28.49
2018-08-25T09:09:22.763Z,28.71
2018-08-25T09:11:51.908Z,28.69
2018-08-25T09:14:20.884Z,29.16
2018-08-25T09:16:49.923Z,28.31
2018-08-25T09:19:18.958Z,28.28
2018-08-25T09:21:47.971Z,29.05
2018-08-25T09:24:17.143Z,28.58
2018-08-25T09:26:46.246Z,28.97
2018-08-25T09:29:15.265Z,28.73
2018-08-25T09:31:44.226Z,28.14
2018-08-25T09:34:13.199Z,27.62
2018-08-25T09:36:42.276Z,27.13
2018-08-25T09:39:11.659Z,27.76
2018-08-25T09:41:41.120Z,27.89
2018-08-25T09:44:10.200Z,26.91
2018-08-25T09:46:39.177Z,27.55
2018-08-25T09:49:08.152Z,28.04
2018-08-25T09:51:37.134Z,28.41
2018-08-25T09:54:06.138Z,27.95
2018-08-25T09:56:35.107Z,28.13
2018-08-25T09:59:04.248Z,28.17
2018-08-25T10:01:37.305Z,28.19
2018-08-25T10:04:06.300Z,28.26
2018-08-25T10:06:35.269Z,28.06
2018-08-25T10:09:05.200Z,27.93
2018-08-25T10:11:34.627Z,28.33
2018-08-25T10:14:04.052Z,28.16
2018-08-25T10:16:33.068Z,28.81
2018-08-25T10:19:02.831Z,28.39
2018-08-25T10:21:31.835Z,28.08
2018-08-25T10:24:01.389Z,27.99
2018-08-25T10:26:30.406Z,28.23
2018-08-25T10:28:59.935Z,28.95
2018-08-25T10:31:28.953Z,29.20
2018-08-25T10:33:58.016Z,29.44
2018-08-25T10:36:27.021Z,28.86
2018-08-25T10:38:56.036Z,29.67
2018-08-25T10:41:25.069Z,29.77
2018-08-25T10:43:53.988Z,29.97
2018-08-25T10:46:22.928Z,30.34
2018-08-25T10:48:51.963Z,30.96
2018-08-25T10:51:20.979Z,31.06
2018-08-25T10:53:50.331Z,30.49
2018-08-25T10:56:19.352Z,30.86
2018-08-25T10:58:48.382Z,30.91
2018-08-25T11:01:17.626Z,30.17
2018-08-25T11:03:49.538Z,28.87
2018-08-25T11:06:18.579Z,28.61
2018-08-25T11:08:47.694Z,28.87
2018-08-25T11:11:16.745Z,29.15
2018-08-25T11:13:45.782Z,28.96
2018-08-25T11:16:14.828Z,28.78
2018-08-25T11:18:43.804Z,29.01
2018-08-25T11:21:37.695Z,28.61
2018-08-25T11:34:11.929Z,29.16
2018-08-25T11:36:40.982Z,29.11
2018-08-25T11:39:11.519Z,28.46
2018-08-25T11:41:40.983Z,28.26
2018-08-25T11:44:10.929Z,28.35
2018-08-25T11:46:39.929Z,29.14
2018-08-25T11:49:09.638Z,29.62
2018-08-25T11:51:38.605Z,29.50
2018-08-25T11:54:07.642Z,29.80
2018-08-25T11:56:36.653Z,29.70
2018-08-25T11:59:05.624Z,28.68
2018-08-25T12:01:34.641Z,28.43
2018-08-25T12:04:08.735Z,28.87
2018-08-25T12:06:42.451Z,29.11
2018-08-25T12:09:20.198Z,29.44
2018-08-25T12:11:55.921Z,29.39
2018-08-25T12:14:32.006Z,29.45
2018-08-25T12:17:08.132Z,29.90
2018-08-25T12:19:43.254Z,30.07
2018-08-25T12:22:17.256Z,29.93
2018-08-25T12:24:51.742Z,29.92
2018-08-25T12:27:25.612Z,30.25
2018-08-25T12:29:56.837Z,30.34
2018-08-25T12:32:25.906Z,30.50
2018-08-25T12:34:54.955Z,30.14
2018-08-25T12:37:24.034Z,29.56
2018-08-25T12:39:52.981Z,29.11
2018-08-25T12:42:22.015Z,28.92
2018-08-25T12:44:51.028Z,29.32
2018-08-25T12:47:25.404Z,29.66
2018-08-25T12:49:55.913Z,29.76
2018-08-25T12:52:24.863Z,29.43
2018-08-25T12:54:53.875Z,28.66
2018-08-25T12:57:22.933Z,28.36
2018-08-25T12:59:51.910Z,28.44
2018-08-25T13:02:26.041Z,29.24
2018-08-25T13:05:00.214Z,29.15
2018-08-25T13:07:33.828Z,28.98
2018-08-25T13:10:08.031Z,29.01
2018-08-25T13:12:42.353Z,29.06
2018-08-25T13:15:21.195Z,28.76
2018-08-25T13:17:55.313Z,29.19
2018-08-25T13:20:29.335Z,29.92
2018-08-25T13:22:58.665Z,29.50
2018-08-25T13:25:27.573Z,29.38
2018-08-25T13:27:56.531Z,29.02
2018-08-25T13:30:25.499Z,28.31
2018-08-25T13:32:54.514Z,28.27
2018-08-25T13:35:23.485Z,28.65
2018-08-25T13:37:52.444Z,28.45
2018-08-25T13:40:26.208Z,28.12
2018-08-25T13:42:55.276Z,27.87
2018-08-25T13:45:24.234Z,27.71
2018-08-25T13:47:53.497Z,27.40
2018-08-25T13:56:20.983Z,27.59
2018-08-25T13:58:49.965Z,27.59
2018-08-25T14:01:50.864Z,27.59
2018-08-25T14:10:13.760Z,28.05
2018-08-25T14:12:42.752Z,27.91
2018-08-25T14:15:15.984Z,27.96
2018-08-25T14:17:45.135Z,28.15
2018-08-25T14:20:14.846Z,28.35
2018-08-25T14:22:47.457Z,28.18
2018-08-25T14:25:19.329Z,28.26
2018-08-25T14:27:48.305Z,28.27
2018-08-25T14:30:20.611Z,28.24
2018-08-25T14:32:49.910Z,28.32
2018-08-25T14:35:22.005Z,28.33
2018-08-25T14:37:51.061Z,28.15
2018-08-25T14:40:22.297Z,28.24
2018-08-25T14:42:52.956Z,28.24
2018-08-25T14:45:22.287Z,28.17
2018-08-25T14:47:51.562Z,28.28
2018-08-25T14:50:22.986Z,28.28
2018-08-25T14:52:52.094Z,28.18
2018-08-25T14:55:21.759Z,27.99
2018-08-25T14:57:50.792Z,27.71
2018-08-25T15:00:22.467Z,27.70
2018-08-25T15:02:51.785Z,27.77
2018-08-25T15:05:25.596Z,27.70
2018-08-25T15:07:54.797Z,27.48
2018-08-25T15:10:23.830Z,27.51
2018-08-25T15:12:55.586Z,27.53
2018-08-25T15:15:27.687Z,27.30
2018-08-25T15:17:57.663Z,27.07
2018-08-25T15:20:26.834Z,27.06
2018-08-25T15:22:56.085Z,27.08
2018-08-25T15:25:33.307Z,26.86
2018-08-25T15:28:02.262Z,26.79
2018-08-25T15:30:32.680Z,26.82
2018-08-25T15:33:03.064Z,26.74
2018-08-25T15:35:35.363Z,26.70
2018-08-25T15:38:04.463Z,26.61
2018-08-25T15:43:31.814Z,26.59
2018-08-25T15:46:00.828Z,26.63
2018-08-25T15:48:29.917Z,26.65
2018-08-25T15:50:59.005Z,26.36
2018-08-25T15:53:28.600Z,26.21
2018-08-25T15:55:57.616Z,26.17
2018-08-25T15:58:26.920Z,26.11
2018-08-25T16:00:55.905Z,26.07
2018-08-25T16:03:24.900Z,25.93
2018-08-25T16:05:53.939Z,25.91
2018-08-25T16:08:22.927Z,25.81
2018-08-25T16:10:51.868Z,25.83
2018-08-25T16:13:21.608Z,25.80
2018-08-25T16:15:50.560Z,25.83
2018-08-25T16:18:19.543Z,25.84
2018-08-25T16:20:48.613Z,25.71
2018-08-25T16:23:17.643Z,25.62
2018-08-25T16:25:46.602Z,25.51
2018-08-25T16:28:15.749Z,25.47
2018-08-25T16:30:44.871Z,25.44
2018-08-25T16:33:14.305Z,25.40
2018-08-25T16:35:43.419Z,25.33
2018-08-25T16:38:12.716Z,25.32
2018-08-25T16:40:41.822Z,25.31
2018-08-25T16:43:11.030Z,25.32
2018-08-25T16:45:40.071Z,25.29
2018-08-25T16:48:09.132Z,25.24
2018-08-25T16:50:38.179Z,25.22
2018-08-25T16:53:07.191Z,25.19
2018-08-25T16:55:36.377Z,25.16
2018-08-25T16:58:05.575Z,25.13
2018-08-25T17:00:34.760Z,25.12
2018-08-25T17:03:03.804Z,25.08
2018-08-25T17:05:32.951Z,25.01
2018-08-25T17:08:01.980Z,24.97
2018-08-25T17:10:31.194Z,24.99
2018-08-25T17:13:00.363Z,24.96
2018-08-25T17:15:29.947Z,24.93
2018-08-25T17:17:59.585Z,24.87
2018-08-25T17:20:28.709Z,24.82
2018-08-25T17:22:57.877Z,24.80
2018-08-25T17:25:28.713Z,24.80
2018-08-25T17:27:58.491Z,24.81
2018-08-25T17:30:27.716Z,24.78
2018-08-25T17:32:56.966Z,24.69
2018-08-25T17:38:19.039Z,24.54
2018-08-25T17:40:48.200Z,24.46
2018-08-25T17:43:19.406Z,24.40
2018-08-25T17:45:48.754Z,24.34
2018-08-25T17:48:17.803Z,24.25
2018-08-25T17:50:47.410Z,24.14
2018-08-25T17:53:16.726Z,24.11
2018-08-25T17:56:21.530Z,24.06
2018-08-25T17:58:54.141Z,23.99
2018-08-25T18:01:23.707Z,23.96
2018-08-25T18:03:53.281Z,23.90
2018-08-25T18:06:22.618Z,23.87
2018-08-25T18:08:51.707Z,23.88
2018-08-25T18:11:21.764Z,23.86
2018-08-25T18:13:50.811Z,23.80
2018-08-25T18:16:19.842Z,23.72
2018-08-25T18:18:48.885Z,23.60
2018-08-25T18:21:17.973Z,23.46
2018-08-25T18:23:47.272Z,23.33
2018-08-25T18:26:18.854Z,23.25
2018-08-25T18:28:48.205Z,23.19
2018-08-25T18:31:18.480Z,23.19
2018-08-25T18:33:47.639Z,23.18
2018-08-25T18:36:23.661Z,23.12
2018-08-25T18:39:00.168Z,22.99
2018-08-25T18:41:46.893Z,23.00
2018-08-25T18:47:42.090Z,22.82
2018-08-25T18:50:34.561Z,22.72
2018-08-25T18:53:26.527Z,22.63
2018-08-25T18:59:03.903Z,22.45
2018-08-25T19:01:37.091Z,22.41
2018-08-25T19:04:06.750Z,22.32
2018-08-25T19:06:36.187Z,22.20
2018-08-25T19:09:07.603Z,22.18
2018-08-25T19:11:37.041Z,22.15
2018-08-25T19:17:06.750Z,22.04
2018-08-25T19:19:36.819Z,22.03
2018-08-25T19:22:06.177Z,21.97
2018-08-25T19:24:35.700Z,21.94
2018-08-25T19:27:04.831Z,21.90
2018-08-25T19:29:34.112Z,21.81
2018-08-25T19:32:03.349Z,21.85
2018-08-25T19:34:32.559Z,21.76
2018-08-25T19:37:01.824Z,21.68
2018-08-25T19:39:31.192Z,21.52
2018-08-25T19:42:13.755Z,21.54
2018-08-25T19:44:43.146Z,21.47
2018-08-25T19:47:14.199Z,21.37
2018-08-25T19:49:43.429Z,21.35
2018-08-25T19:52:40.965Z,21.38
2018-08-25T19:55:15.793Z,21.28
2018-08-25T19:57:51.607Z,21.09
2018-08-25T20:00:22.139Z,21.35
2018-08-25T20:02:52.377Z,21.32
2018-08-25T20:05:22.187Z,21.19
2018-08-25T20:07:51.235Z,21.21
2018-08-25T20:10:20.794Z,21.26
2018-08-25T20:12:49.844Z,21.22
2018-08-25T20:15:25.235Z,21.16
2018-08-25T20:17:54.398Z,21.25
2018-08-25T20:20:23.942Z,21.18
2018-08-25T20:23:14.823Z,21.09
2018-08-25T20:25:44.174Z,21.03
2018-08-25T20:28:14.155Z,21.03
2018-08-25T20:30:44.309Z,20.98
2018-08-25T20:33:14.144Z,20.95
2018-08-25T20:35:45.836Z,20.99
2018-08-25T20:38:16.142Z,21.00
2018-08-25T20:40:46.328Z,20.90
2018-08-25T20:43:15.946Z,20.96
2018-08-25T20:45:45.430Z,20.94
2018-08-25T20:48:15.194Z,20.89
2018-08-25T20:50:44.476Z,20.86
2018-08-25T20:53:16.057Z,20.78
2018-08-25T20:55:45.397Z,20.81
2018-08-25T20:58:15.269Z,20.77
2018-08-25T21:00:45.401Z,20.79
2018-08-25T21:03:16.021Z,20.85
2018-08-25T21:05:45.551Z,20.83
2018-08-25T21:08:15.334Z,20.83
2018-08-25T21:10:44.640Z,20.87
2018-08-25T21:13:15.433Z,20.86
2018-08-25T21:15:44.824Z,20.81
2018-08-25T21:18:14.899Z,20.87
2018-08-25T21:20:44.512Z,20.83
2018-08-25T21:23:14.662Z,20.85
2018-08-25T21:25:44.606Z,20.85
2018-08-25T21:28:17.262Z,20.87
2018-08-25T21:30:47.392Z,20.89
2018-08-25T21:33:17.311Z,20.91
2018-08-25T21:36:04.047Z,20.89
2018-08-25T21:38:38.491Z,20.87
2018-08-25T21:41:19.574Z,20.82
2018-08-25T21:43:51.240Z,20.82
2018-08-25T21:46:20.461Z,20.82
2018-08-25T21:48:49.622Z,20.73
2018-08-25T21:51:18.831Z,20.71
2018-08-25T21:53:59.747Z,20.74
2018-08-25T21:56:29.282Z,20.71
2018-08-25T21:58:59.013Z,20.86
2018-08-25T22:01:33.665Z,20.90
2018-08-25T22:04:02.773Z,20.87
2018-08-25T22:06:31.754Z,20.92
2018-08-25T22:09:00.826Z,21.00
2018-08-25T22:11:30.124Z,20.99
2018-08-25T22:13:59.872Z,20.99
2018-08-25T22:16:29.163Z,20.98
2018-08-25T22:18:58.490Z,21.05
2018-08-25T22:21:31.622Z,21.01
2018-08-25T22:24:01.369Z,20.93
2018-08-25T22:26:30.531Z,20.93
2018-08-25T22:28:59.758Z,20.85
2018-08-25T22:31:29.148Z,20.81
2018-08-25T22:33:58.357Z,20.81
2018-08-25T22:36:27.584Z,20.84
2018-08-25T22:38:56.696Z,20.78
2018-08-25T22:41:40.401Z,20.71
2018-08-25T22:44:10.595Z,20.72
2018-08-25T22:46:43.713Z,20.69
2018-08-25T22:49:13.520Z,20.67
2018-08-25T22:51:42.740Z,20.69
2018-08-25T22:54:12.290Z,20.66
2018-08-25T22:56:41.436Z,20.71
2018-08-25T22:59:10.719Z,20.68
2018-08-25T23:01:39.894Z,20.66
2018-08-25T23:04:10.021Z,20.64
2018-08-25T23:06:39.415Z,20.66
2018-08-25T23:09:10.713Z,20.57
2018-08-25T23:11:40.218Z,20.62
2018-08-25T23:14:09.338Z,20.61
2018-08-25T23:16:38.461Z,20.61
2018-08-25T23:19:08.199Z,20.61
2018-08-25T23:21:37.507Z,20.61
2018-08-25T23:24:06.582Z,20.64
2018-08-25T23:26:35.597Z,20.63
2018-08-25T23:29:04.711Z,20.57
2018-08-25T23:31:33.800Z,20.58
2018-08-25T23:34:02.967Z,20.42
2018-08-25T23:36:32.363Z,20.33
2018-08-25T23:39:02.016Z,20.26
2018-08-25T23:41:31.104Z,20.22
2018-08-25T23:44:00.252Z,20.16
2018-08-25T23:46:29.505Z,20.17
2018-08-25T23:48:58.500Z,20.17
2018-08-25T23:51:27.674Z,20.13
2018-08-25T23:53:56.759Z,20.12
2018-08-25T23:57:02.104Z,20.14
2018-08-25T23:59:54.011Z,20.11
